createdAt,value
2022-09-03T00:02:21.489Z,18.34
2022-09-03T00:07:43.128Z,18.38
2022-09-03T00:12:47.799Z,18.34
2022-09-03T00:17:54.735Z,18.29
2022-09-03T00:23:03.685Z,18.26
2022-09-03T00:28:19.370Z,18.20
2022-09-03T00:33:24.859Z,18.12
2022-09-03T00:38:29.653Z,18.03
2022-09-03T00:43:46.464Z,17.99
2022-09-03T00:48:48.297Z,17.91
2022-09-03T00:54:01.425Z,17.89
2022-09-03T00:59:51.907Z,17.87
2022-09-03T01:05:08.975Z,17.86
2022-09-03T01:10:44.772Z,17.81
2022-09-03T01:16:11.634Z,17.68
2022-09-03T01:22:03.450Z,17.60
2022-09-03T01:27:08.006Z,17.53
2022-09-03T01:32:45.261Z,17.53
2022-09-03T01:38:14.912Z,17.46
2022-09-03T01:43:22.719Z,17.36
2022-09-03T01:48:44.489Z,17.31
2022-09-03T01:53:55.525Z,17.25
2022-09-03T01:59:21.712Z,17.15
2022-09-03T02:04:26.296Z,17.06
2022-09-03T02:09:32.568Z,16.99
2022-09-03T02:14:36.306Z,16.90
2022-09-03T02:19:39.613Z,16.73
2022-09-03T02:24:41.525Z,16.63
2022-09-03T02:29:43.585Z,16.55
2022-09-03T02:34:45.582Z,16.50
2022-09-03T02:39:47.686Z,16.40
2022-09-03T02:44:55.574Z,16.36
2022-09-03T02:49:57.559Z,16.28
2022-09-03T02:54:59.427Z,16.14
2022-09-03T03:00:01.344Z,16.12
2022-09-03T03:05:04.376Z,16.07
2022-09-03T03:10:06.734Z,16.03
2022-09-03T03:15:08.935Z,15.95
2022-09-03T03:20:11.070Z,15.89
2022-09-03T03:25:12.977Z,15.83
2022-09-03T03:30:14.976Z,15.74
2022-09-03T03:35:16.890Z,15.69
2022-09-03T03:40:20.348Z,15.65
2022-09-03T03:45:22.210Z,15.61
2022-09-03T03:50:24.106Z,15.54
2022-09-03T03:55:27.130Z,15.47
2022-09-03T04:00:29.111Z,15.35
2022-09-03T04:05:33.596Z,15.28
2022-09-03T04:10:37.046Z,15.29
2022-09-03T04:15:39.209Z,15.24
2022-09-03T04:20:41.128Z,15.20
2022-09-03T04:25:44.302Z,15.12
2022-09-03T04:30:47.568Z,15.06
2022-09-03T04:35:51.148Z,15.07
2022-09-03T04:40:53.142Z,15.08
2022-09-03T04:46:02.963Z,15.11
2022-09-03T04:51:15.718Z,15.14
2022-09-03T04:56:25.792Z,15.17
2022-09-03T05:01:29.707Z,15.19
2022-09-03T05:06:33.752Z,15.27
2022-09-03T05:11:35.646Z,15.34
2022-09-03T05:16:37.723Z,15.46
2022-09-03T05:21:39.700Z,15.59
2022-09-03T05:26:42.053Z,15.70
2022-09-03T05:31:44.037Z,15.78
2022-09-03T05:36:47.109Z,15.88
2022-09-03T05:41:50.702Z,16.01
2022-09-03T05:46:53.663Z,16.12
2022-09-03T05:51:55.799Z,16.22
2022-09-03T05:56:57.678Z,16.36
2022-09-03T06:02:00.469Z,16.56
2022-09-03T06:07:02.575Z,16.80
2022-09-03T06:12:04.839Z,17.13
2022-09-03T06:17:06.814Z,17.39
2022-09-03T06:22:08.757Z,17.69
2022-09-03T06:27:10.641Z,17.98
2022-09-03T06:32:12.551Z,18.31
2022-09-03T06:37:14.533Z,18.51
2022-09-03T06:42:16.436Z,18.63
2022-09-03T06:47:18.322Z,18.75
2022-09-03T06:52:20.459Z,18.88
2022-09-03T06:57:22.358Z,19.19
2022-09-03T07:02:24.283Z,19.44
2022-09-03T07:07:26.208Z,19.60
2022-09-03T07:12:28.142Z,19.84
2022-09-03T07:17:30.010Z,20.10
2022-09-03T07:22:31.925Z,20.38
2022-09-03T07:27:35.535Z,20.65
2022-09-03T07:32:41.119Z,20.91
2022-09-03T07:37:43.515Z,21.04
2022-09-03T07:42:46.980Z,21.25
2022-09-03T07:47:50.081Z,21.45
2022-09-03T07:53:01.778Z,21.72
2022-09-03T07:58:03.866Z,21.83
2022-09-03T08:03:08.618Z,21.91
2022-09-03T08:08:11.059Z,22.23
2022-09-03T08:13:17.499Z,22.38
2022-09-03T08:18:20.083Z,22.55
2022-09-03T08:23:23.483Z,22.66
2022-09-03T08:28:25.425Z,22.82
2022-09-03T08:33:39.582Z,22.93
2022-09-03T08:38:45.630Z,23.12
2022-09-03T08:44:03.363Z,23.26
2022-09-03T08:49:07.272Z,23.45
2022-09-03T08:54:11.146Z,23.57
2022-09-03T08:59:13.088Z,23.62
2022-09-03T09:04:45.622Z,23.56
2022-09-03T09:09:56.677Z,23.66
2022-09-03T09:15:12.949Z,23.83
2022-09-03T09:20:14.756Z,24.01
2022-09-03T09:25:22.455Z,24.18
2022-09-03T09:30:24.335Z,24.42
2022-09-03T09:35:26.970Z,24.50
2022-09-03T09:40:35.187Z,24.55
2022-09-03T09:45:42.202Z,24.65
2022-09-03T09:50:44.258Z,24.74
2022-09-03T09:55:58.314Z,24.87
2022-09-03T10:01:13.177Z,24.83
2022-09-03T10:06:35.189Z,24.92
2022-09-03T10:11:40.597Z,24.97
2022-09-03T10:16:49.018Z,25.02
2022-09-03T10:22:03.635Z,25.28
2022-09-03T10:27:12.750Z,25.38
2022-09-03T10:33:00.769Z,25.58
2022-09-03T10:38:18.797Z,25.53
2022-09-03T10:43:20.640Z,25.64
2022-09-03T10:48:26.563Z,25.68
2022-09-03T10:53:50.668Z,25.78
2022-09-03T10:59:10.803Z,25.87
2022-09-03T11:04:20.028Z,26.00
2022-09-03T11:09:46.183Z,26.11
2022-09-03T11:15:03.831Z,26.26
2022-09-03T11:20:20.851Z,26.16
2022-09-03T11:25:28.695Z,26.08
2022-09-03T11:30:50.136Z,26.20
2022-09-03T11:36:01.459Z,26.37
2022-09-03T11:41:24.516Z,26.49
2022-09-03T11:46:26.642Z,26.35
2022-09-03T11:51:30.669Z,26.34
2022-09-03T11:56:34.531Z,26.30
2022-09-03T12:01:37.808Z,26.39
2022-09-03T12:06:57.408Z,26.26
2022-09-03T12:12:24.128Z,26.24
2022-09-03T12:17:28.978Z,26.02
2022-09-03T12:22:38.806Z,26.11
2022-09-03T12:27:45.655Z,26.39
2022-09-03T12:32:48.612Z,26.37
2022-09-03T12:38:14.944Z,26.46
2022-09-03T12:54:17.873Z,26.33
2022-09-03T12:59:22.388Z,26.44
2022-09-03T13:04:34.702Z,26.78
2022-09-03T13:09:40.615Z,27.01
2022-09-03T13:14:48.376Z,27.29
2022-09-03T13:20:23.262Z,27.49
2022-09-03T13:25:42.107Z,27.70
2022-09-03T13:30:58.838Z,27.59
2022-09-03T13:36:08.978Z,27.36
2022-09-03T13:41:30.280Z,27.07
2022-09-03T13:46:45.755Z,26.72
2022-09-03T13:51:56.984Z,26.75
2022-09-03T13:57:06.185Z,26.72
2022-09-03T14:02:17.058Z,26.71
2022-09-03T14:07:26.896Z,26.79
2022-09-03T14:12:45.764Z,26.94
2022-09-03T14:18:01.846Z,26.94
2022-09-03T14:23:48.707Z,26.99
2022-09-03T14:29:03.795Z,26.90
2022-09-03T14:34:14.821Z,26.74
2022-09-03T14:39:56.026Z,26.80
2022-09-03T14:44:59.523Z,26.84
2022-09-03T14:50:28.590Z,26.78
2022-09-03T14:56:04.938Z,26.69
2022-09-03T15:01:19.308Z,26.80
2022-09-03T15:06:42.307Z,26.77
2022-09-03T15:11:52.896Z,26.55
2022-09-03T15:17:36.652Z,26.44
2022-09-03T15:22:58.070Z,26.34
2022-09-03T15:28:20.083Z,26.24
2022-09-03T15:33:47.995Z,26.23
2022-09-03T15:39:16.595Z,26.11
2022-09-03T15:44:23.030Z,25.91
2022-09-03T15:49:32.131Z,25.87
2022-09-03T15:55:09.893Z,25.96
2022-09-03T16:00:21.359Z,25.82
2022-09-03T16:05:35.716Z,25.67
2022-09-03T16:10:51.106Z,25.58
2022-09-03T16:16:06.930Z,25.59
2022-09-03T16:21:26.213Z,25.54
2022-09-03T16:26:42.310Z,25.40
2022-09-03T16:32:27.133Z,25.36
2022-09-03T16:37:36.714Z,25.27
2022-09-03T16:43:41.435Z,25.15
2022-09-03T16:49:23.472Z,25.06
2022-09-03T16:54:40.921Z,25.04
2022-09-03T16:59:51.811Z,24.98
2022-09-03T17:05:10.350Z,24.97
2022-09-03T17:10:33.458Z,24.91
2022-09-03T17:15:38.284Z,24.81
2022-09-03T17:20:49.687Z,24.70
2022-09-03T17:26:48.994Z,24.54
2022-09-03T17:32:36.543Z,24.32
2022-09-03T17:38:02.148Z,24.20
2022-09-03T17:43:15.881Z,24.09
2022-09-03T17:48:32.629Z,24.06
2022-09-03T17:53:45.988Z,24.01
2022-09-03T17:59:04.140Z,23.98
2022-09-03T18:04:28.633Z,23.83
2022-09-03T18:09:41.372Z,23.55
2022-09-03T18:14:43.580Z,23.25
2022-09-03T18:20:27.401Z,23.15
2022-09-03T18:25:50.057Z,23.03
2022-09-03T18:31:10.890Z,22.94
2022-09-03T18:36:31.627Z,22.87
2022-09-03T18:42:04.339Z,22.77
2022-09-03T18:48:06.869Z,22.66
2022-09-03T18:53:48.027Z,22.50
2022-09-03T18:59:38.655Z,22.44
2022-09-03T19:04:59.735Z,22.34
2022-09-03T19:10:30.401Z,22.27
2022-09-03T19:16:02.935Z,22.24
2022-09-03T19:21:39.007Z,22.26
2022-09-03T19:27:29.879Z,22.20
2022-09-03T19:33:04.217Z,22.11
2022-09-03T19:38:39.599Z,22.03
2022-09-03T19:44:12.236Z,21.97
2022-09-03T19:49:40.380Z,21.90
2022-09-03T19:55:01.227Z,21.83
2022-09-03T20:00:32.518Z,21.80
2022-09-03T20:05:56.462Z,21.81
2022-09-03T20:10:59.375Z,21.75
2022-09-03T20:16:16.893Z,21.67
2022-09-03T20:21:23.831Z,21.45
2022-09-03T20:27:12.739Z,21.41
2022-09-03T20:32:53.186Z,21.38
2022-09-03T20:37:58.839Z,21.31
2022-09-03T20:43:28.161Z,21.31
2022-09-03T20:48:49.343Z,21.30
2022-09-03T20:54:09.642Z,21.32
2022-09-03T20:59:45.085Z,21.24
2022-09-03T21:05:00.529Z,21.18
2022-09-03T21:10:13.674Z,21.07
2022-09-03T21:15:37.751Z,20.98
2022-09-03T21:21:20.646Z,20.82
2022-09-03T21:26:32.967Z,20.64
2022-09-03T21:31:42.062Z,20.51
2022-09-03T21:36:46.468Z,20.41
2022-09-03T21:41:58.030Z,20.45
2022-09-03T21:47:06.306Z,20.50
2022-09-03T21:52:13.180Z,20.40
2022-09-03T21:57:29.180Z,20.35
2022-09-03T22:02:33.510Z,20.29
2022-09-03T22:07:50.739Z,20.27
2022-09-03T22:13:25.418Z,20.18
2022-09-03T22:18:36.955Z,20.11
2022-09-03T22:24:14.841Z,20.10
2022-09-03T22:29:37.718Z,20.13
2022-09-03T22:35:17.783Z,20.18
2022-09-03T22:40:28.506Z,20.15
2022-09-03T22:45:59.353Z,20.13
2022-09-03T22:51:03.309Z,20.10
2022-09-03T22:56:08.528Z,20.07
2022-09-03T23:01:27.654Z,20.01
2022-09-03T23:06:36.535Z,19.99
2022-09-03T23:11:44.323Z,20.01
2022-09-03T23:16:52.734Z,19.98
2022-09-03T23:22:00.453Z,19.93
2022-09-03T23:27:07.534Z,19.91
2022-09-03T23:32:09.756Z,19.88
2022-09-03T23:37:49.497Z,19.87
2022-09-03T23:43:22.640Z,19.83
2022-09-03T23:48:37.789Z,19.75
2022-09-03T23:54:19.640Z,19.74
2022-09-03T23:59:42.869Z,19.71
